Time;durP1;ratioP1;P1;durP2;ratioP2;P2;SDS_P1;SDS_P2;PMS_P1;PMS_P2;Temp;Humidity;BMP_temperature;BMP_pressure;BME280_temperature;BME280_humidity;BME280_pressure;Samples;Min_cycle;Max_cycle;Signal;HPM_P1;HPM_P2
2024/04/07 00:01:18;;;;;;;2.38;0.80;;;;;;;18.14;35.68;94121.97;5025086;28;20026;-73
2024/04/07 00:03:43;;;;;;;2.47;0.90;;;;;;;18.11;35.43;94114.59;5025189;28;20045;-73
2024/04/07 00:06:09;;;;;;;3.58;0.65;;;;;;;18.06;35.77;94122.97;5024461;28;20030;-75
2024/04/07 00:08:34;;;;;;;1.23;0.60;;;;;;;18.08;36.04;94126.09;5024003;28;20022;-73
2024/04/07 00:11:05;;;;;;;2.25;0.70;;;;;;;18.04;36.00;94125.25;5024119;28;20061;-73
2024/04/07 00:13:30;;;;;;;6.45;1.40;;;;;;;17.98;35.95;94126.66;5024155;28;20029;-73
2024/04/07 00:15:57;;;;;;;11.95;2.15;;;;;;;18.00;35.98;94132.47;5024808;28;20033;-73
2024/04/07 00:18:23;;;;;;;2.42;0.65;;;;;;;17.96;36.19;94127.00;5025079;28;20084;-74
2024/04/07 00:20:59;;;;;;;1.70;0.60;;;;;;;17.92;36.46;94130.75;5024910;28;20385;-73
2024/04/07 00:23:25;;;;;;;4.05;0.88;;;;;;;17.87;36.70;94131.81;5025064;28;20041;-73
2024/04/07 00:25:50;;;;;;;2.05;1.08;;;;;;;17.89;36.17;94131.44;5024719;28;20092;-74
2024/04/07 00:28:16;;;;;;;4.15;0.68;;;;;;;17.82;36.28;94135.53;5024826;28;20044;-74
2024/04/07 00:30:43;;;;;;;5.38;0.88;;;;;;;17.83;36.85;94145.22;5024777;28;20026;-74
2024/04/07 00:33:08;;;;;;;2.30;0.90;;;;;;;17.81;37.12;94139.38;5024815;28;20024;-73
2024/04/07 00:35:34;;;;;;;1.95;0.70;;;;;;;17.79;37.06;94136.25;5024734;28;20046;-75
2024/04/07 00:37:59;;;;;;;2.85;0.93;;;;;;;17.82;36.95;94143.63;5024760;28;20045;-75
2024/04/07 00:40:25;;;;;;;5.10;0.80;;;;;;;17.77;37.25;94141.19;5024952;28;20045;-74
2024/04/07 00:42:51;;;;;;;3.90;1.13;;;;;;;17.76;37.18;94150.41;5024537;28;20101;-75
2024/04/07 00:45:17;;;;;;;1.73;0.65;;;;;;;17.75;37.33;94146.16;5023755;28;20022;-75
2024/04/07 00:47:42;;;;;;;1.92;0.95;;;;;;;17.76;37.44;94142.31;5024470;28;20018;-74
2024/04/07 00:50:09;;;;;;;3.90;1.05;;;;;;;17.67;37.44;94144.44;5024603;28;20021;-74
2024/04/07 00:52:35;;;;;;;2.75;1.17;;;;;;;17.67;37.35;94138.25;5024312;28;20056;-74
2024/04/07 00:55:03;;;;;;;2.97;1.20;;;;;;;17.64;37.47;94128.97;5024126;28;20272;-75
2024/04/07 00:57:29;;;;;;;1.33;0.60;;;;;;;17.61;37.86;94133.16;5024083;28;20097;-74
2024/04/07 00:59:55;;;;;;;2.53;0.98;;;;;;;17.59;37.90;94138.09;5024229;28;20045;-74
2024/04/07 01:02:21;;;;;;;2.42;0.85;;;;;;;17.56;38.57;94138.00;5024049;28;20032;-74
2024/04/07 01:04:46;;;;;;;2.35;0.80;;;;;;;17.48;38.77;94134.38;5024011;28;20025;-73
2024/04/07 01:07:12;;;;;;;2.72;0.90;;;;;;;17.47;38.99;94140.13;5024001;28;20026;-73
2024/04/07 01:09:39;;;;;;;3.72;1.00;;;;;;;17.46;39.37;94147.41;5023985;28;20028;-74
2024/04/07 01:12:14;;;;;;;6.50;1.00;;;;;;;17.43;40.09;94146.19;5024151;28;20029;-74
2024/04/07 01:14:40;;;;;;;3.47;0.80;;;;;;;17.38;40.73;94149.19;5023995;28;20315;-76
2024/04/07 01:17:06;;;;;;;4.18;1.20;;;;;;;17.29;41.67;94137.78;5023643;28;20020;-75
2024/04/07 01:19:34;;;;;;;8.27;1.52;;;;;;;17.32;42.47;94139.78;5022620;28;20165;-76
2024/04/07 01:22:01;;;;;;;2.58;1.35;;;;;;;17.25;42.59;94140.38;5023614;28;20018;-76
2024/04/07 01:24:27;;;;;;;4.43;1.20;;;;;;;17.22;43.09;94140.31;5023601;28;20048;-76
2024/04/07 01:26:52;;;;;;;6.75;1.52;;;;;;;17.17;43.20;94144.03;5023662;28;20034;-76
2024/04/07 01:29:17;;;;;;;3.10;1.50;;;;;;;17.10;43.77;94138.50;5023778;28;20036;-76
2024/04/07 01:31:43;;;;;;;6.20;1.73;;;;;;;17.09;44.19;94138.81;5023829;28;20029;-76
2024/04/07 01:34:08;;;;;;;6.63;1.30;;;;;;;17.03;44.78;94149.06;5023248;28;20022;-76
2024/04/07 01:36:34;;;;;;;6.85;2.25;;;;;;;16.95;45.14;94145.41;5023401;28;20053;-76
2024/04/07 01:39:00;;;;;;;13.45;3.50;;;;;;;16.91;45.49;94147.22;5023785;28;20006;-76
2024/04/07 01:41:25;;;;;;;5.13;1.80;;;;;;;16.85;45.47;94143.22;5023497;28;20021;-76
2024/04/07 01:43:50;;;;;;;7.57;1.20;;;;;;;16.79;46.10;94140.00;5023420;28;20068;-76
2024/04/07 01:46:16;;;;;;;5.53;2.13;;;;;;;16.70;46.51;94146.66;5023067;28;20200;-75
2024/04/07 01:48:41;;;;;;;3.83;1.48;;;;;;;16.74;46.59;94144.84;5023440;28;20075;-75
2024/04/07 01:51:09;;;;;;;9.45;1.50;;;;;;;16.69;46.92;94139.69;5023290;28;20021;-76
2024/04/07 01:53:35;;;;;;;3.65;1.70;;;;;;;16.70;47.16;94152.81;5023597;28;20219;-75
2024/04/07 01:56:01;;;;;;;8.40;1.88;;;;;;;16.68;47.16;94140.84;5023378;28;20025;-74
2024/04/07 01:58:26;;;;;;;8.98;1.58;;;;;;;16.64;47.57;94144.19;5023385;28;20204;-74
2024/04/07 02:00:51;;;;;;;8.82;1.88;;;;;;;16.67;47.65;94150.03;5023183;28;20036;-74
2024/04/07 02:03:17;;;;;;;6.65;1.83;;;;;;;16.61;47.72;94147.59;5023099;28;20068;-74
2024/04/07 02:05:44;;;;;;;3.40;1.80;;;;;;;16.60;47.97;94148.72;5023000;28;20026;-74
2024/04/07 02:08:09;;;;;;;5.35;1.95;;;;;;;16.59;48.12;94149.84;5023115;28;20068;-73
2024/04/07 02:10:34;;;;;;;6.55;2.05;;;;;;;16.56;48.78;94152.44;5022928;28;20030;-74
2024/04/07 02:13:01;;;;;;;4.50;1.67;;;;;;;16.51;48.54;94156.16;5023108;28;20093;-73
2024/04/07 02:15:26;;;;;;;9.35;2.92;;;;;;;16.51;48.73;94150.00;5022932;28;20308;-74
2024/04/07 02:17:51;;;;;;;5.45;2.00;;;;;;;16.50;48.87;94154.59;5022790;28;20033;-73
2024/04/07 02:20:18;;;;;;;6.40;2.00;;;;;;;16.52;49.18;94157.72;5022759;28;20029;-75
2024/04/07 02:22:43;;;;;;;7.82;1.75;;;;;;;16.46;49.17;94159.09;5022818;28;20061;-74
2024/04/07 02:25:10;;;;;;;3.60;1.92;;;;;;;16.48;49.27;94162.22;5022967;28;20072;-75
2024/04/07 02:27:35;;;;;;;6.93;1.67;;;;;;;16.44;49.40;94167.53;5023093;28;20093;-74
2024/04/07 02:30:01;;;;;;;10.15;2.45;;;;;;;16.44;49.72;94161.34;5022780;28;20215;-75
2024/04/07 02:32:26;;;;;;;7.70;1.90;;;;;;;16.42;49.84;94158.19;5022773;28;20093;-75
2024/04/07 02:34:52;;;;;;;6.10;2.30;;;;;;;16.40;49.82;94157.75;5022641;28;20215;-74
2024/04/07 02:37:17;;;;;;;8.85;1.80;;;;;;;16.40;50.03;94157.75;5023082;28;20361;-74
2024/04/07 02:39:43;;;;;;;5.85;1.92;;;;;;;16.41;49.81;94152.06;5022863;28;20014;-75
2024/04/07 02:42:08;;;;;;;7.45;2.28;;;;;;;16.37;50.11;94155.78;5022645;28;20024;-75
2024/04/07 02:50:02;;;;;;;9.90;1.90;;;;;;;16.21;50.25;94134.97;5022711;28;20036;-73
2024/04/07 02:52:27;;;;;;;4.72;1.70;;;;;;;16.14;50.14;94140.16;5022000;28;20042;-73
2024/04/07 02:54:53;;;;;;;8.40;2.03;;;;;;;16.11;50.50;94132.75;5022387;28;20022;-73
2024/04/07 02:57:19;;;;;;;4.63;2.20;;;;;;;16.04;50.88;94140.63;5022542;28;20029;-73
2024/04/07 02:59:46;;;;;;;5.60;1.70;;;;;;;16.05;51.09;94145.66;5022231;28;20025;-74
2024/04/07 03:02:12;;;;;;;9.93;2.08;;;;;;;16.08;50.74;94128.09;5022515;28;20220;-75
2024/04/07 03:04:38;;;;;;;7.57;1.98;;;;;;;16.01;50.82;94139.41;5022140;28;20030;-75
2024/04/07 03:07:03;;;;;;;5.70;2.03;;;;;;;15.99;50.62;94140.88;5022783;28;20236;-75
2024/04/07 03:09:29;;;;;;;5.03;1.98;;;;;;;15.94;50.82;94144.59;5026534;28;20032;-74
2024/04/07 03:11:54;;;;;;;3.60;1.60;;;;;;;15.98;49.65;94147.38;5026490;28;20220;-74
2024/04/07 03:14:20;;;;;;;4.78;1.70;;;;;;;16.03;49.38;94153.28;5026166;28;20042;-75
2024/04/07 03:16:46;;;;;;;4.95;1.90;;;;;;;16.10;49.16;94163.47;5026073;28;20026;-74
2024/04/07 03:19:12;;;;;;;6.40;1.80;;;;;;;16.12;49.69;94150.47;5026089;28;20091;-75
2024/04/07 03:21:37;;;;;;;5.80;1.95;;;;;;;16.14;49.67;94156.28;5026081;28;20018;-75
2024/04/07 03:24:03;;;;;;;6.72;3.05;;;;;;;16.16;49.61;94162.13;5026062;28;20267;-75
2024/04/07 03:26:28;;;;;;;4.53;2.10;;;;;;;16.17;49.89;94163.66;5025935;28;20021;-75
2024/04/07 03:28:54;;;;;;;7.65;1.83;;;;;;;16.17;49.74;94171.75;5026031;28;20026;-75
2024/04/07 03:31:19;;;;;;;3.35;1.65;;;;;;;16.21;49.26;94167.25;5025748;28;20026;-75
2024/04/07 03:33:47;;;;;;;5.05;1.73;;;;;;;16.24;49.27;94166.56;5026022;28;20026;-74
2024/04/07 03:36:13;;;;;;;10.75;2.05;;;;;;;16.28;49.25;94169.34;5025757;28;20053;-74
2024/04/07 03:38:38;;;;;;;6.63;1.92;;;;;;;16.27;49.18;94172.41;5025864;28;20030;-74
2024/04/07 03:41:04;;;;;;;9.38;2.05;;;;;;;16.24;49.58;94174.66;5025813;28;20036;-74
2024/04/07 03:43:29;;;;;;;9.05;2.10;;;;;;;16.23;49.39;94173.06;5024326;28;20038;-74
2024/04/07 03:46:02;;;;;;;10.05;1.80;;;;;;;16.27;49.65;94180.47;5025630;28;20218;-74
2024/04/07 03:48:30;;;;;;;11.50;1.98;;;;;;;16.30;49.37;94188.63;5025688;28;20029;-74
2024/04/07 03:50:56;;;;;;;4.10;1.60;;;;;;;16.34;49.42;94177.97;5025681;28;20239;-75
2024/04/07 03:53:22;;;;;;;5.00;1.75;;;;;;;16.33;49.39;94187.94;5025412;28;20021;-74
2024/04/07 03:55:48;;;;;;;7.10;2.20;;;;;;;16.38;49.40;94192.28;5025213;28;20097;-75
2024/04/07 03:58:14;;;;;;;9.27;2.70;;;;;;;16.41;49.51;94199.69;5025318;28;20034;-74
2024/04/07 04:00:39;;;;;;;9.95;2.45;;;;;;;16.38;49.87;94193.06;5025242;28;20026;-75
2024/04/07 04:03:06;;;;;;;4.10;1.63;;;;;;;16.37;49.80;94198.81;5025376;28;20065;-75
2024/04/07 04:05:31;;;;;;;6.57;2.20;;;;;;;16.33;49.80;94195.25;5025029;28;20029;-74
2024/04/07 04:07:57;;;;;;;8.18;2.10;;;;;;;16.33;50.19;94203.31;5025381;28;20260;-75
2024/04/07 04:10:22;;;;;;;5.35;1.58;;;;;;;16.34;50.52;94199.47;5025191;28;20045;-75
2024/04/07 04:12:47;;;;;;;4.15;1.88;;;;;;;16.33;50.25;94197.94;5024909;28;20037;-75
2024/04/07 04:15:13;;;;;;;5.75;2.03;;;;;;;16.32;50.72;94193.66;5025013;28;20029;-75
2024/04/07 04:17:38;;;;;;;3.35;1.67;;;;;;;16.31;50.60;94200.19;5025007;28;20021;-75
2024/04/07 04:20:04;;;;;;;4.65;2.05;;;;;;;16.35;50.42;94201.06;5023856;28;20037;-74
2024/04/07 04:22:30;;;;;;;7.05;3.83;;;;;;;16.38;50.37;94203.84;5024897;28;20026;-75
2024/04/07 04:24:59;;;;;;;7.88;2.20;;;;;;;16.40;50.51;94211.56;5024921;28;20018;-75
2024/04/07 04:27:25;;;;;;;9.77;2.10;;;;;;;16.41;50.74;94208.53;5025019;28;20299;-75
2024/04/07 04:29:51;;;;;;;6.93;2.25;;;;;;;16.41;51.24;94205.06;5025072;28;20030;-76
2024/04/07 04:32:16;;;;;;;11.45;2.10;;;;;;;16.35;51.14;94211.81;5025165;28;20074;-76
2024/04/07 04:34:42;;;;;;;6.55;2.15;;;;;;;16.24;51.11;94214.97;5024913;28;20052;-76
2024/04/07 04:37:07;;;;;;;15.55;2.30;;;;;;;16.16;51.66;94220.47;5024274;28;20041;-75
2024/04/07 04:39:33;;;;;;;5.88;1.90;;;;;;;16.14;51.72;94214.66;5024472;28;20032;-76
2024/04/07 04:41:58;;;;;;;5.35;1.80;;;;;;;16.10;51.80;94214.56;5024380;28;20026;-78
2024/04/07 04:44:24;;;;;;;9.07;2.38;;;;;;;16.02;52.36;94218.94;5024676;28;20032;-78
2024/04/07 04:46:49;;;;;;;7.38;2.20;;;;;;;15.97;52.79;94216.47;5024499;28;20088;-77
2024/04/07 04:49:15;;;;;;;4.47;1.73;;;;;;;15.93;52.86;94228.25;5024490;28;20021;-77
2024/04/07 04:51:41;;;;;;;12.90;2.60;;;;;;;15.92;52.98;94221.31;5024270;28;20061;-77
2024/04/07 04:54:07;;;;;;;13.73;2.97;;;;;;;15.91;53.09;94219.72;5024163;28;20032;-77
2024/04/07 04:56:33;;;;;;;8.15;2.20;;;;;;;15.95;53.00;94226.78;5024510;28;20192;-77
2024/04/07 04:58:59;;;;;;;8.13;2.50;;;;;;;15.96;53.30;94212.22;5024178;28;20076;-77
2024/04/07 05:01:25;;;;;;;11.00;2.45;;;;;;;16.00;53.63;94202.38;5024334;28;20030;-77
2024/04/07 05:03:52;;;;;;;4.85;2.13;;;;;;;16.08;53.24;94214.13;5024421;28;20033;-77
2024/04/07 05:06:19;;;;;;;14.73;2.25;;;;;;;16.19;52.78;94209.81;5023684;28;20096;-74
2024/04/07 05:08:45;;;;;;;4.20;2.13;;;;;;;16.15;52.68;94214.31;5023941;28;20813;-74
2024/04/07 05:11:10;;;;;;;7.90;1.80;;;;;;;16.16;52.94;94218.59;5022712;28;20030;-76
2024/04/07 05:13:36;;;;;;;8.38;2.33;;;;;;;16.14;53.21;94220.84;5024046;28;20029;-76
2024/04/07 05:16:02;;;;;;;5.05;2.30;;;;;;;16.17;53.51;94217.44;5023554;28;20029;-76
2024/04/07 05:18:28;;;;;;;6.30;2.10;;;;;;;16.21;53.49;94215.66;5023831;28;20100;-75
2024/04/07 05:20:57;;;;;;;5.47;2.28;;;;;;;16.20;54.60;94221.38;5023969;28;20072;-75
2024/04/07 05:23:23;;;;;;;4.07;2.20;;;;;;;16.18;54.77;94218.22;5023628;28;20022;-75
2024/04/07 05:25:48;;;;;;;10.65;2.88;;;;;;;16.16;54.38;94218.59;5023514;28;20324;-74
2024/04/07 05:28:14;;;;;;;5.93;2.00;;;;;;;16.10;53.06;94214.56;5023584;28;20072;-75
2024/04/07 05:30:39;;;;;;;5.07;1.98;;;;;;;16.16;53.33;94210.53;5023181;28;20060;-75
2024/04/07 05:33:06;;;;;;;5.72;1.92;;;;;;;16.21;52.94;94210.28;5022284;28;20354;-76
2024/04/07 05:35:32;;;;;;;7.10;2.00;;;;;;;16.31;52.90;94208.25;5023361;28;20037;-76
2024/04/07 05:37:57;;;;;;;6.35;1.70;;;;;;;16.44;52.08;94215.13;5023624;28;20288;-76
2024/04/07 05:40:23;;;;;;;5.40;2.42;;;;;;;16.57;52.28;94218.59;5023199;28;20029;-76
2024/04/07 05:42:48;;;;;;;9.48;2.13;;;;;;;16.65;51.69;94221.13;5023255;28;20041;-76
2024/04/07 05:45:15;;;;;;;5.57;2.00;;;;;;;16.74;50.55;94206.75;5023202;28;20251;-75
2024/04/07 05:47:40;;;;;;;5.50;1.90;;;;;;;16.84;50.30;94211.66;5023335;28;20029;-76
2024/04/07 05:50:06;;;;;;;3.28;1.70;;;;;;;16.93;49.54;94212.28;5023278;28;20014;-76
2024/04/07 05:52:32;;;;;;;4.88;1.40;;;;;;;17.02;49.49;94215.63;5023034;28;20019;-77
2024/04/07 05:54:57;;;;;;;7.03;1.77;;;;;;;17.09;49.08;94220.38;5023640;28;20067;-77
2024/04/07 05:57:22;;;;;;;6.95;1.70;;;;;;;17.11;49.48;94217.38;5023299;28;20029;-77
2024/04/07 05:59:48;;;;;;;6.65;2.03;;;;;;;17.20;48.96;94218.00;5023153;28;20038;-77
2024/04/07 06:02:13;;;;;;;7.45;2.55;;;;;;;17.22;49.59;94223.81;5022870;28;20364;-77
2024/04/07 06:04:39;;;;;;;9.00;2.15;;;;;;;17.33;48.84;94224.84;5022938;28;20028;-77
2024/04/07 06:07:05;;;;;;;7.00;2.60;;;;;;;17.32;48.40;94223.31;5022995;28;20024;-77
2024/04/07 06:09:30;;;;;;;8.98;2.83;;;;;;;17.33;48.43;94224.84;5022993;28;20068;-75
2024/04/07 06:11:56;;;;;;;6.93;2.00;;;;;;;17.38;48.49;94219.22;5022746;28;20112;-75
2024/04/07 06:14:21;;;;;;;8.07;1.58;;;;;;;17.36;48.46;94221.47;5022990;28;20339;-75
2024/04/07 06:16:47;;;;;;;7.78;1.70;;;;;;;17.34;47.47;94217.56;5022605;28;20030;-75
2024/04/07 06:19:12;;;;;;;7.50;2.05;;;;;;;17.36;46.82;94220.69;5022858;28;20026;-76
2024/04/07 06:21:38;;;;;;;4.47;1.30;;;;;;;17.37;47.17;94212.25;5022563;28;20025;-75
2024/04/07 06:24:04;;;;;;;4.70;1.20;;;;;;;17.36;46.86;94209.91;5022640;28;20093;-76
2024/04/07 06:26:29;;;;;;;4.68;1.40;;;;;;;17.38;46.15;94205.75;5022622;28;20049;-75
2024/04/07 06:28:55;;;;;;;3.00;1.05;;;;;;;17.41;44.54;94215.03;5022856;28;20026;-77
2024/04/07 06:31:20;;;;;;;4.10;1.58;;;;;;;17.50;45.90;94204.88;5022447;28;20033;-77
2024/04/07 06:33:46;;;;;;;4.47;1.70;;;;;;;17.51;45.77;94213.75;5054241;28;20025;-76
2024/04/07 06:36:11;;;;;;;6.35;1.35;;;;;;;17.51;46.00;94217.22;5022465;28;20050;-80
2024/04/07 06:38:36;;;;;;;3.80;1.20;;;;;;;17.50;45.04;94225.66;5022480;28;20319;-76
2024/04/07 06:41:02;;;;;;;4.47;1.10;;;;;;;17.53;44.82;94219.56;5022371;28;20097;-77
2024/04/07 06:43:27;;;;;;;5.50;1.30;;;;;;;17.62;44.72;94223.63;5022072;28;20022;-76
2024/04/07 06:45:56;;;;;;;5.53;1.30;;;;;;;17.69;43.76;94220.34;5022523;28;20096;-76
2024/04/07 06:48:22;;;;;;;5.22;1.10;;;;;;;17.81;43.80;94220.25;5022344;28;20272;-76
2024/04/07 06:50:48;;;;;;;3.83;1.27;;;;;;;17.92;43.70;94225.91;5022299;28;20033;-76
2024/04/07 06:53:13;;;;;;;3.60;1.20;;;;;;;17.97;43.38;94222.16;5022354;28;20327;-76
2024/04/07 06:55:39;;;;;;;9.93;1.10;;;;;;;17.96;43.87;94229.47;5022470;28;20030;-74
2024/04/07 06:58:04;;;;;;;5.40;1.10;;;;;;;18.15;43.53;94233.34;5022562;28;20025;-71
2024/04/07 07:00:29;;;;;;;4.97;1.48;;;;;;;18.26;46.56;94228.97;5022503;28;20056;-73
2024/04/07 07:02:55;;;;;;;8.27;1.55;;;;;;;18.45;44.26;94239.00;5022550;28;20026;-70
2024/04/07 07:05:22;;;;;;;6.50;1.27;;;;;;;18.52;43.16;94235.69;5022450;28;20339;-74
2024/04/07 07:07:47;;;;;;;2.42;1.00;;;;;;;18.48;41.57;94235.63;5022582;28;20139;-77
2024/04/07 07:10:13;;;;;;;3.45;1.15;;;;;;;18.52;41.18;94235.69;5022441;28;20014;-73
2024/04/07 07:12:38;;;;;;;2.40;0.95;;;;;;;18.56;40.69;94242.72;5021711;28;20060;-73
2024/04/07 07:15:04;;;;;;;5.22;1.17;;;;;;;18.57;41.28;94233.47;5021057;28;20340;-73
2024/04/07 07:17:29;;;;;;;3.17;1.10;;;;;;;18.63;41.59;94228.59;5021640;28;20026;-73
2024/04/07 07:19:55;;;;;;;2.03;0.80;;;;;;;18.74;40.91;94236.91;5021816;28;20109;-73
2024/04/07 07:22:20;;;;;;;2.75;0.90;;;;;;;18.76;41.05;94245.41;5021747;28;20018;-73
2024/04/07 07:24:45;;;;;;;3.13;1.00;;;;;;;18.92;41.46;94242.69;5021414;28;20026;-73
2024/04/07 07:27:11;;;;;;;4.68;0.95;;;;;;;19.10;41.11;94238.41;5020977;28;20049;-74
2024/04/07 07:29:36;;;;;;;5.32;1.00;;;;;;;19.28;39.44;94241.44;5020154;28;20257;-74
2024/04/07 07:32:02;;;;;;;2.15;1.02;;;;;;;19.31;39.53;94238.00;5019242;28;20073;-73
2024/04/07 07:34:27;;;;;;;2.15;0.82;;;;;;;19.31;39.71;94235.28;5019360;28;20021;-74
2024/04/07 07:36:53;;;;;;;1.88;0.90;;;;;;;19.16;39.50;94247.00;5019043;28;20053;-74
2024/04/07 07:39:19;;;;;;;2.95;0.93;;;;;;;19.24;39.00;94262.22;5019663;28;20022;-73
2024/04/07 07:41:45;;;;;;;6.35;1.20;;;;;;;19.38;39.41;94248.19;5020363;28;20041;-73
2024/04/07 07:44:10;;;;;;;1.90;1.05;;;;;;;19.59;39.96;94251.22;5022022;28;20211;-73
2024/04/07 07:46:36;;;;;;;2.35;1.10;;;;;;;19.70;39.56;94250.63;5022001;28;20076;-73
2024/04/07 07:49:01;;;;;;;1.95;0.98;;;;;;;19.90;39.27;94243.25;5021991;28;20057;-74
2024/04/07 07:51:28;;;;;;;2.35;1.05;;;;;;;19.98;38.42;94247.63;5022050;28;20024;-73
2024/04/07 07:53:55;;;;;;;6.22;1.50;;;;;;;20.05;38.62;94239.63;5023357;28;20044;-74
2024/04/07 07:56:20;;;;;;;8.23;2.15;;;;;;;20.21;38.53;94242.97;5025573;28;20064;-74
2024/04/07 07:58:45;;;;;;;4.28;1.20;;;;;;;20.40;37.79;94250.19;5025547;28;20053;-74
2024/04/07 08:01:11;;;;;;;2.78;1.45;;;;;;;20.58;37.20;94250.47;5025185;28;20108;-72
2024/04/07 08:03:36;;;;;;;2.38;1.30;;;;;;;20.81;36.94;94252.28;5025368;28;20205;-73
2024/04/07 08:06:03;;;;;;;5.18;1.27;;;;;;;20.95;36.90;94260.59;5025421;28;20041;-73
2024/04/07 08:08:29;;;;;;;4.63;1.00;;;;;;;21.02;35.95;94255.25;5025443;28;20053;-74
2024/04/07 08:10:54;;;;;;;2.90;1.15;;;;;;;21.10;36.40;94255.31;5025264;28;20080;-74
2024/04/07 08:13:20;;;;;;;6.82;1.13;;;;;;;20.89;37.51;94253.94;5024971;28;20277;-74
2024/04/07 08:15:45;;;;;;;1.80;1.00;;;;;;;20.77;37.09;94254.16;5025178;28;20371;-74
2024/04/07 08:18:12;;;;;;;3.97;0.98;;;;;;;20.88;37.16;94265.13;5024993;28;20064;-74
2024/04/07 08:20:39;;;;;;;4.45;1.00;;;;;;;20.92;36.52;94257.81;5024796;28;20021;-74
2024/04/07 08:23:05;;;;;;;2.58;0.80;;;;;;;20.97;36.85;94263.72;5025144;28;20267;-74
2024/04/07 08:25:30;;;;;;;4.63;0.90;;;;;;;21.00;36.37;94268.41;5024966;28;20056;-74
2024/04/07 08:27:56;;;;;;;6.43;1.25;;;;;;;20.94;35.88;94264.44;5025105;28;20316;-74
2024/04/07 08:30:21;;;;;;;3.20;1.13;;;;;;;20.87;36.89;94264.34;5024681;28;20335;-73
2024/04/07 08:32:47;;;;;;;3.65;1.50;;;;;;;20.84;37.04;94259.66;5024594;28;20096;-73
2024/04/07 08:35:12;;;;;;;2.25;0.90;;;;;;;20.88;36.92;94265.13;5024459;28;20045;-74
2024/04/07 08:37:41;;;;;;;2.67;1.02;;;;;;;20.87;37.50;94267.06;5024945;28;20028;-74
2024/04/07 08:40:07;;;;;;;4.05;1.08;;;;;;;20.82;37.30;94259.25;5024490;28;20036;-74
2024/04/07 08:42:33;;;;;;;5.40;1.25;;;;;;;20.93;37.57;94273.72;5024394;28;20036;-73
2024/04/07 08:45:01;;;;;;;6.68;1.60;;;;;;;20.92;37.73;94268.66;5024711;28;20100;-73
2024/04/07 08:47:28;;;;;;;4.55;1.15;;;;;;;20.91;37.44;94267.88;5024736;28;20021;-73
2024/04/07 08:49:55;;;;;;;10.98;1.40;;;;;;;20.87;36.50;94269.00;5024426;28;20034;-74
2024/04/07 08:52:21;;;;;;;7.30;1.58;;;;;;;20.92;36.35;94263.25;5024297;28;20093;-73
2024/04/07 08:54:47;;;;;;;5.22;1.33;;;;;;;20.98;37.38;94265.25;5024465;28;20030;-73
2024/04/07 08:57:14;;;;;;;3.15;1.00;;;;;;;20.99;37.04;94266.81;5024504;28;20216;-74
2024/04/07 08:59:40;;;;;;;8.90;1.40;;;;;;;21.22;36.91;94274.03;5024204;28;20052;-73
2024/04/07 09:02:07;;;;;;;11.27;1.20;;;;;;;21.26;36.83;94268.69;5024222;28;20215;-74
2024/04/07 09:04:33;;;;;;;2.78;0.95;;;;;;;21.27;35.67;94260.19;5022830;28;20014;-73
2024/04/07 09:07:01;;;;;;;2.58;0.90;;;;;;;21.34;35.04;94262.19;5024131;28;20052;-73
2024/04/07 09:09:26;;;;;;;3.88;1.17;;;;;;;21.44;35.86;94273.16;5024212;28;20029;-74
2024/04/07 09:11:52;;;;;;;3.95;1.40;;;;;;;21.54;35.98;94270.94;5023988;28;20116;-73
2024/04/07 09:14:17;;;;;;;4.55;1.25;;;;;;;21.58;36.33;94264.38;5024114;28;20018;-73
2024/04/07 09:16:43;;;;;;;3.35;1.25;;;;;;;21.49;35.09;94261.19;5023991;28;20046;-74
2024/04/07 09:19:08;;;;;;;2.03;1.10;;;;;;;21.35;36.15;94266.44;5023967;28;20036;-74
2024/04/07 09:21:33;;;;;;;3.15;1.17;;;;;;;21.42;36.76;94271.94;5024024;28;20021;-73
2024/04/07 09:24:00;;;;;;;10.50;1.27;;;;;;;21.58;36.48;94267.09;5024053;28;20097;-73
2024/04/07 09:26:25;;;;;;;14.90;1.52;;;;;;;21.79;35.07;94274.63;5023940;28;20030;-74
2024/04/07 09:28:50;;;;;;;2.55;0.90;;;;;;;21.91;34.22;94273.59;5023672;28;20037;-74
2024/04/07 09:31:18;;;;;;;5.15;0.90;;;;;;;21.93;34.01;94273.97;5023901;28;20018;-74
2024/04/07 09:33:45;;;;;;;3.67;1.20;;;;;;;21.91;34.63;94273.59;5023693;28;20224;-75
2024/04/07 09:36:11;;;;;;;2.92;1.05;;;;;;;21.94;34.58;94281.00;5023724;28;20248;-74
2024/04/07 09:38:36;;;;;;;6.65;0.98;;;;;;;21.92;34.42;94279.78;5023405;28;20037;-74
2024/04/07 09:41:02;;;;;;;2.05;0.88;;;;;;;21.94;34.56;94285.63;5023661;28;20013;-74
2024/04/07 09:43:29;;;;;;;5.28;1.35;;;;;;;21.95;34.28;94293.38;5023669;28;20017;-74
2024/04/07 09:45:55;;;;;;;2.78;1.38;;;;;;;21.98;34.09;94289.94;5023633;28;20045;-74
2024/04/07 09:48:22;;;;;;;6.50;1.45;;;;;;;21.97;34.02;94284.88;5023361;28;20334;-74
2024/04/07 09:50:59;;;;;;;2.95;1.15;;;;;;;21.89;33.76;94288.69;5023439;28;20017;-74
2024/04/07 09:53:58;;;;;;;3.22;0.82;;;;;;;21.78;33.69;94291.31;5023541;28;20041;-74
2024/04/07 09:56:28;;;;;;;5.63;1.20;;;;;;;21.59;34.30;94298.47;5023353;28;20022;-74
2024/04/07 09:58:54;;;;;;;3.25;1.00;;;;;;;21.54;34.19;94304.25;5023451;28;20022;-74
2024/04/07 10:01:21;;;;;;;5.40;1.20;;;;;;;21.53;34.48;94301.91;5023238;28;20375;-74
2024/04/07 10:03:48;;;;;;;6.13;1.38;;;;;;;21.33;34.02;94303.97;5023099;28;20026;-74
2024/04/07 10:06:15;;;;;;;3.97;0.90;;;;;;;21.21;33.91;94299.59;5023119;28;20089;-74
2024/04/07 10:08:41;;;;;;;1.40;0.90;;;;;;;21.29;34.37;94301.25;5023089;28;20021;-74
2024/04/07 10:11:17;;;;;;;2.95;1.23;;;;;;;21.15;34.61;94303.78;5023029;28;20025;-74
2024/04/07 10:13:42;;;;;;;2.42;0.65;;;;;;;21.09;35.02;94303.34;5023048;28;20089;-74
2024/04/07 10:16:08;;;;;;;5.88;1.10;;;;;;;21.00;35.03;94306.34;5022963;28;20020;-74
2024/04/07 10:18:37;;;;;;;6.28;1.10;;;;;;;21.01;34.02;94312.53;5022281;28;20108;-74
2024/04/07 10:21:05;;;;;;;3.97;0.90;;;;;;;20.98;34.55;94303.19;5022616;28;20017;-74
2024/04/07 10:23:33;;;;;;;6.45;1.00;;;;;;;21.08;34.79;94318.03;5022978;28;20034;-74
2024/04/07 10:26:03;;;;;;;2.75;0.73;;;;;;;21.17;33.85;94310.41;5023043;28;20093;-74
2024/04/07 10:28:48;;;;;;;3.25;0.68;;;;;;;21.25;33.77;94313.97;5023080;28;20024;-74
2024/04/07 10:31:30;;;;;;;1.60;0.80;;;;;;;21.43;34.15;94312.28;5023116;28;20089;-74
2024/04/07 10:33:56;;;;;;;6.13;1.60;;;;;;;21.62;34.98;94302.41;5022927;28;20065;-74
2024/04/07 10:36:23;;;;;;;6.03;0.85;;;;;;;21.76;35.29;94301.75;5022550;28;20328;-74
2024/04/07 10:38:56;;;;;;;6.28;1.23;;;;;;;21.97;34.92;94320.16;5022912;28;20029;-74
2024/04/07 10:41:24;;;;;;;4.07;0.77;;;;;;;22.03;34.44;94322.16;5022795;28;20030;-75
2024/04/07 10:43:50;;;;;;;2.10;1.00;;;;;;;22.06;34.84;94314.41;5022642;28;20033;-74
2024/04/07 10:46:19;;;;;;;2.58;1.17;;;;;;;21.99;34.70;94334.13;5022588;28;20022;-74
2024/04/07 10:48:46;;;;;;;13.07;1.60;;;;;;;21.87;34.32;94342.53;5022691;28;20057;-74
2024/04/07 10:51:16;;;;;;;6.68;0.82;;;;;;;21.76;34.51;94331.59;5022664;28;20100;-74
2024/04/07 10:53:45;;;;;;;6.63;1.00;;;;;;;21.75;35.07;94347.06;5022538;28;20053;-74
2024/04/07 10:56:11;;;;;;;9.02;1.33;;;;;;;21.83;35.69;94343.28;5022298;28;20024;-74
2024/04/07 10:58:37;;;;;;;6.90;1.58;;;;;;;21.78;35.70;94338.22;5022395;28;20054;-74
2024/04/07 11:01:06;;;;;;;12.30;1.40;;;;;;;21.79;35.86;94339.75;5022479;28;20021;-75
2024/04/07 11:03:36;;;;;;;3.35;1.10;;;;;;;21.88;36.03;94347.59;5022514;28;20032;-76
2024/04/07 11:06:03;;;;;;;4.22;0.95;;;;;;;21.46;36.03;94348.72;5022491;28;20342;-76
2024/04/07 11:08:29;;;;;;;5.30;1.00;;;;;;;21.54;36.78;94339.50;5022625;28;20024;-76
2024/04/07 11:10:55;;;;;;;8.98;1.15;;;;;;;21.69;36.95;94351.28;5022548;28;20028;-76
2024/04/07 11:13:21;;;;;;;5.72;1.10;;;;;;;21.84;36.33;94347.56;5021300;28;20057;-76
2024/04/07 11:15:49;;;;;;;5.30;1.30;;;;;;;21.97;35.61;94356.22;5022211;28;20238;-77
2024/04/07 11:18:16;;;;;;;4.00;1.15;;;;;;;22.06;34.72;94364.03;5022265;28;20029;-75
2024/04/07 11:20:42;;;;;;;4.40;1.05;;;;;;;22.07;34.95;94368.31;5022121;28;20033;-75
2024/04/07 11:23:09;;;;;;;9.00;1.38;;;;;;;22.09;35.28;94363.31;5022449;28;20048;-83
2024/04/07 11:25:35;;;;;;;5.10;1.10;;;;;;;21.98;36.19;94371.34;5022873;28;20022;-83
2024/04/07 11:28:04;;;;;;;2.42;0.90;;;;;;;21.81;34.35;94359.16;5022828;28;20033;-92
2024/04/07 11:30:35;;;;;;;2.00;0.95;;;;;;;21.68;34.70;94365.22;5025745;28;20030;-86
2024/04/07 11:33:09;;;;;;;3.40;0.50;;;;;;;21.69;34.76;94372.97;5025957;28;20034;-86